createdAt,value
2022-09-09T00:01:26.892Z,98844.50
2022-09-09T00:04:01.621Z,98847.91
2022-09-09T00:06:29.754Z,98838.72
2022-09-09T00:09:03.206Z,98829.13
2022-09-09T00:11:42.470Z,98830.09
2022-09-09T00:14:14.676Z,98837.25
2022-09-09T00:16:42.135Z,98841.38
2022-09-09T00:19:09.486Z,98858.97
2022-09-09T00:21:37.757Z,98850.19
2022-09-09T00:24:12.247Z,98846.75
2022-09-09T00:26:41.254Z,98844.34
2022-09-09T00:29:08.496Z,98845.94
2022-09-09T00:31:35.755Z,98848.50
2022-09-09T00:34:12.131Z,98836.88
2022-09-09T00:36:39.604Z,98835.87
2022-09-09T00:39:06.965Z,98839.03
2022-09-09T00:41:44.710Z,98839.03
2022-09-09T00:44:31.044Z,98838.91
2022-09-09T00:47:06.088Z,98835.13
2022-09-09T00:49:36.988Z,98833.75
2022-09-09T00:52:09.375Z,98830.25
2022-09-09T00:54:36.710Z,98829.78
2022-09-09T00:57:12.972Z,98838.44
2022-09-09T00:59:43.843Z,98847.63
2022-09-09T01:02:30.176Z,98853.25
2022-09-09T01:05:03.873Z,98854.88
2022-09-09T01:07:31.031Z,98857.03
2022-09-09T01:09:59.167Z,98849.28
2022-09-09T01:12:32.482Z,98858.72
2022-09-09T01:15:04.417Z,98861.19
2022-09-09T01:17:33.686Z,98856.84
2022-09-09T01:20:11.796Z,98873.53
2022-09-09T01:22:42.377Z,98866.28
2022-09-09T01:25:26.793Z,98880.44
2022-09-09T01:27:55.905Z,98885.25
2022-09-09T01:30:23.323Z,98879.22
2022-09-09T01:32:51.881Z,98888.53
2022-09-09T01:35:25.335Z,98883.34
2022-09-09T01:37:52.933Z,98887.22
2022-09-09T01:40:20.269Z,98879.66
2022-09-09T01:42:48.184Z,98891.06
2022-09-09T01:45:15.556Z,98894.28
2022-09-09T01:47:42.987Z,98897.63
2022-09-09T01:50:12.425Z,98900.41
2022-09-09T01:52:39.828Z,98898.78
2022-09-09T01:55:08.034Z,98901.09
2022-09-09T01:57:39.605Z,98899.28
2022-09-09T02:00:12.715Z,98902.09
2022-09-09T02:02:47.513Z,98888.69
2022-09-09T02:05:38.437Z,98890.75
2022-09-09T02:08:12.212Z,98895.31
2022-09-09T02:10:45.543Z,98899.00
2022-09-09T02:13:17.357Z,98900.47
2022-09-09T02:15:44.762Z,98890.53
2022-09-09T02:18:12.221Z,98897.88
2022-09-09T02:23:07.070Z,98895.63
2022-09-09T02:25:34.262Z,98891.62
2022-09-09T02:28:02.798Z,98889.97
2022-09-09T02:30:30.504Z,98887.25
2022-09-09T02:32:58.144Z,98880.78
2022-09-09T02:35:27.587Z,98877.81
2022-09-09T02:37:56.075Z,98876.69
2022-09-09T02:40:23.656Z,98882.28
2022-09-09T02:42:51.666Z,98874.25
2022-09-09T02:45:20.063Z,98879.00
2022-09-09T02:47:59.926Z,98874.63
2022-09-09T02:50:30.906Z,98883.19
2022-09-09T02:53:11.092Z,98882.53
2022-09-09T02:55:40.655Z,98885.94
2022-09-09T02:58:09.037Z,98888.75
2022-09-09T03:00:40.406Z,98885.63
2022-09-09T03:03:09.763Z,98893.31
2022-09-09T03:05:37.585Z,98900.59
2022-09-09T03:08:06.450Z,98896.59
2022-09-09T03:10:34.053Z,98896.50
2022-09-09T03:13:01.200Z,98903.69
2022-09-09T03:15:31.020Z,98907.47
2022-09-09T03:17:58.842Z,98902.38
2022-09-09T03:20:27.114Z,98906.88
2022-09-09T03:22:54.527Z,98911.53
2022-09-09T03:25:24.141Z,98911.56
2022-09-09T03:27:54.066Z,98895.09
2022-09-09T03:30:25.517Z,98894.97
2022-09-09T03:32:53.153Z,98885.38
2022-09-09T03:35:20.439Z,98881.59
2022-09-09T03:37:47.967Z,98891.72
2022-09-09T03:40:15.568Z,98895.06
2022-09-09T03:42:43.468Z,98896.16
2022-09-09T03:45:11.691Z,98895.50
2022-09-09T03:47:39.726Z,98899.47
2022-09-09T03:50:09.475Z,98906.75
2022-09-09T03:52:37.703Z,98906.75
2022-09-09T03:55:05.978Z,98907.88
2022-09-09T03:57:35.872Z,98912.13
2022-09-09T04:00:05.045Z,98913.00
2022-09-09T04:02:32.924Z,98929.09
2022-09-09T04:05:00.698Z,98918.37
2022-09-09T04:07:29.143Z,98913.56
2022-09-09T04:09:56.752Z,98911.59
2022-09-09T04:12:24.450Z,98910.31
2022-09-09T04:14:51.629Z,98919.28
2022-09-09T04:17:18.772Z,98914.13
2022-09-09T04:19:46.182Z,98921.69
2022-09-09T04:22:14.138Z,98916.53
2022-09-09T04:24:44.466Z,98916.78
2022-09-09T04:27:14.235Z,98917.56
2022-09-09T04:29:41.560Z,98916.34
2022-09-09T04:32:08.951Z,98913.81
2022-09-09T04:34:36.378Z,98916.16
2022-09-09T04:37:04.099Z,98914.25
2022-09-09T04:39:31.515Z,98908.44
2022-09-09T04:42:00.998Z,98897.19
2022-09-09T04:44:28.339Z,98900.06
2022-09-09T04:46:55.535Z,98903.25
2022-09-09T04:49:23.068Z,98893.13
2022-09-09T04:51:50.536Z,98896.94
2022-09-09T04:54:17.980Z,98910.94
2022-09-09T04:56:45.836Z,98899.31
2022-09-09T04:59:13.117Z,98910.81
2022-09-09T05:01:40.493Z,98908.59
2022-09-09T05:04:08.017Z,98908.31
2022-09-09T05:06:37.188Z,98917.63
2022-09-09T05:09:04.604Z,98918.50
2022-09-09T05:11:33.208Z,98912.03
2022-09-09T05:14:00.557Z,98921.75
2022-09-09T05:16:28.377Z,98915.97
2022-09-09T05:18:56.288Z,98937.47
2022-09-09T05:21:24.941Z,98924.19
2022-09-09T05:23:52.463Z,98922.75
2022-09-09T05:26:21.567Z,98927.72
2022-09-09T05:28:49.030Z,98928.91
2022-09-09T05:31:17.196Z,98940.66
2022-09-09T05:33:46.956Z,98944.72
2022-09-09T05:36:15.460Z,98940.87
2022-09-09T05:38:43.318Z,98940.09
2022-09-09T05:41:12.267Z,98941.41
2022-09-09T05:43:39.516Z,98942.06
2022-09-09T05:46:07.555Z,98942.03
2022-09-09T05:48:36.125Z,98942.63
2022-09-09T05:51:22.939Z,98943.00
2022-09-09T05:53:51.371Z,98938.47
2022-09-09T05:56:20.629Z,98938.16
2022-09-09T05:58:50.409Z,98932.63
2022-09-09T06:01:28.815Z,98930.59
2022-09-09T06:03:57.402Z,98937.22
2022-09-09T06:06:29.026Z,98946.31
2022-09-09T06:08:59.086Z,98931.47
2022-09-09T06:11:27.716Z,98925.09
2022-09-09T06:13:55.593Z,98941.03
2022-09-09T06:16:27.350Z,98929.25
2022-09-09T06:18:55.304Z,98931.47
2022-09-09T06:21:33.700Z,98928.72
2022-09-09T06:24:01.460Z,98929.81
2022-09-09T06:26:31.512Z,98937.03
2022-09-09T06:28:59.286Z,98939.41
2022-09-09T06:31:29.995Z,98939.28
2022-09-09T06:33:58.780Z,98942.94
2022-09-09T06:36:26.985Z,98937.75
2022-09-09T06:38:54.314Z,98940.22
2022-09-09T06:41:22.663Z,98937.09
2022-09-09T06:43:50.077Z,98933.63
2022-09-09T06:46:18.281Z,98942.59
2022-09-09T06:48:46.376Z,98948.19
2022-09-09T06:51:14.510Z,98950.13
2022-09-09T06:53:43.098Z,98937.94
2022-09-09T06:56:14.785Z,98943.53
2022-09-09T06:58:47.764Z,98944.53
2022-09-09T07:01:17.439Z,98959.81
2022-09-09T07:03:46.404Z,98956.87
2022-09-09T07:06:15.803Z,98968.16
2022-09-09T07:08:51.776Z,98961.69
2022-09-09T07:11:24.833Z,98966.94
2022-09-09T07:13:52.557Z,98960.84
2022-09-09T07:16:20.226Z,98957.09
2022-09-09T07:18:47.649Z,98955.41
2022-09-09T07:21:15.416Z,98951.84
2022-09-09T07:23:42.590Z,98958.22
2022-09-09T07:26:14.395Z,98957.56
2022-09-09T07:28:42.320Z,98958.88
2022-09-09T07:31:14.707Z,98964.41
2022-09-09T07:33:42.269Z,98964.16
2022-09-09T07:36:16.729Z,98963.09
2022-09-09T07:38:48.435Z,98972.16
2022-09-09T07:41:18.157Z,98974.66
2022-09-09T07:43:46.801Z,98976.31
2022-09-09T07:46:14.616Z,98976.19
2022-09-09T07:48:45.936Z,98965.69
2022-09-09T07:51:17.917Z,98977.19
2022-09-09T07:53:45.717Z,98975.25
2022-09-09T07:56:17.696Z,98964.00
2022-09-09T07:58:46.137Z,98967.19
2022-09-09T08:01:19.031Z,98972.53
2022-09-09T08:03:47.059Z,98970.31
2022-09-09T08:06:14.760Z,98958.69
2022-09-09T08:08:44.195Z,98967.62
2022-09-09T08:11:13.336Z,98963.53
2022-09-09T08:13:40.573Z,98972.31
2022-09-09T08:16:09.122Z,98963.38
2022-09-09T08:18:36.599Z,98965.31
2022-09-09T08:21:12.657Z,98971.44
2022-09-09T08:23:42.182Z,98959.09
2022-09-09T08:26:14.418Z,98969.06
2022-09-09T08:28:42.103Z,98963.94
2022-09-09T08:31:10.508Z,98975.75
2022-09-09T08:33:39.201Z,98960.53
2022-09-09T08:36:07.719Z,98972.59
2022-09-09T08:38:34.933Z,98969.53
2022-09-09T08:41:08.591Z,98973.94
2022-09-09T08:43:36.198Z,98965.47
2022-09-09T08:46:12.008Z,98969.28
2022-09-09T08:48:49.035Z,98975.56
2022-09-09T08:51:16.383Z,98973.53
2022-09-09T08:53:45.581Z,98976.53
2022-09-09T08:56:14.211Z,98967.59
2022-09-09T08:58:45.280Z,98975.69
2022-09-09T09:01:20.031Z,98972.94
2022-09-09T09:04:06.632Z,98973.69
2022-09-09T09:06:42.974Z,98971.22
2022-09-09T09:09:22.617Z,98966.91
2022-09-09T09:11:53.246Z,98966.53
2022-09-09T09:14:24.792Z,98960.47
2022-09-09T09:17:00.441Z,98968.47
2022-09-09T09:19:29.534Z,98963.31
2022-09-09T09:22:11.202Z,98957.00
2022-09-09T09:24:38.560Z,98958.09
2022-09-09T09:27:09.761Z,98948.50
2022-09-09T09:29:51.910Z,98950.41
2022-09-09T09:32:24.987Z,98953.97
2022-09-09T09:34:59.171Z,98940.59
2022-09-09T09:37:31.656Z,98943.84
2022-09-09T09:40:10.221Z,98937.88
2022-09-09T09:42:37.935Z,98947.25
2022-09-09T09:45:19.189Z,98943.72
2022-09-09T09:47:46.821Z,98949.06
2022-09-09T09:50:18.779Z,98947.19
2022-09-09T09:52:54.520Z,98953.84
2022-09-09T09:55:23.722Z,98953.47
2022-09-09T09:57:50.920Z,98948.94
2022-09-09T10:00:19.585Z,98948.28
2022-09-09T10:02:47.609Z,98948.25
2022-09-09T10:05:26.791Z,98946.56
2022-09-09T10:08:11.657Z,98935.53
2022-09-09T10:10:47.411Z,98940.53
2022-09-09T10:13:33.486Z,98941.06
2022-09-09T10:16:04.657Z,98941.28
2022-09-09T10:18:32.771Z,98937.16
2022-09-09T10:21:06.346Z,98937.12
2022-09-09T10:23:39.755Z,98942.28
2022-09-09T10:26:29.482Z,98945.38
2022-09-09T10:29:07.526Z,98942.88
2022-09-09T10:31:39.485Z,98934.78
2022-09-09T10:34:15.601Z,98937.34
2022-09-09T10:36:45.033Z,98936.91
2022-09-09T10:39:17.338Z,98933.28
2022-09-09T10:42:06.159Z,98929.97
2022-09-09T10:44:39.959Z,98931.75
2022-09-09T10:47:10.042Z,98933.50
2022-09-09T10:49:57.634Z,98940.09
2022-09-09T10:52:28.751Z,98940.06
2022-09-09T10:55:14.426Z,98937.56
2022-09-09T10:57:51.048Z,98924.16
2022-09-09T11:00:37.126Z,98924.53
2022-09-09T11:03:04.907Z,98928.16
2022-09-09T11:05:34.923Z,98920.78
2022-09-09T11:08:02.772Z,98929.00
2022-09-09T11:10:31.921Z,98909.63
2022-09-09T11:13:00.857Z,98909.66
2022-09-09T11:15:44.470Z,98907.91
2022-09-09T11:18:13.047Z,98903.72
2022-09-09T11:20:40.125Z,98902.41
2022-09-09T11:23:11.789Z,98916.81
2022-09-09T11:25:43.934Z,98914.66
2022-09-09T11:28:17.017Z,98920.72
2022-09-09T11:30:56.014Z,98922.03
2022-09-09T11:33:42.370Z,98927.69
2022-09-09T11:36:14.802Z,98930.00
2022-09-09T11:38:48.782Z,98919.81
2022-09-09T11:41:21.009Z,98931.44
2022-09-09T11:43:54.851Z,98913.66
2022-09-09T11:46:23.786Z,98913.75
2022-09-09T11:49:01.639Z,98919.50
2022-09-09T11:51:29.644Z,98926.97
2022-09-09T11:54:22.906Z,98919.28
2022-09-09T11:56:50.315Z,98915.44
2022-09-09T11:59:25.293Z,98921.94
2022-09-09T12:02:11.967Z,98919.63
2022-09-09T12:04:43.303Z,98914.94
2022-09-09T12:07:10.384Z,98923.84
2022-09-09T12:09:40.205Z,98930.91
2022-09-09T12:12:13.656Z,98932.03
2022-09-09T12:14:44.343Z,98938.12
2022-09-09T12:17:17.547Z,98929.06
2022-09-09T12:19:44.667Z,98923.91
2022-09-09T12:22:12.321Z,98921.09
2022-09-09T12:24:54.851Z,98917.69
2022-09-09T12:27:22.142Z,98912.44
2022-09-09T12:29:58.128Z,98912.50
2022-09-09T12:32:25.812Z,98899.25
2022-09-09T12:34:52.892Z,98897.03
2022-09-09T12:37:26.273Z,98891.88
2022-09-09T12:40:00.844Z,98893.50
2022-09-09T12:42:28.369Z,98883.09
2022-09-09T12:44:59.845Z,98893.53
2022-09-09T12:47:32.267Z,98878.75
2022-09-09T12:50:00.378Z,98883.13
2022-09-09T12:52:31.998Z,98884.94
2022-09-09T12:54:59.735Z,98887.81
2022-09-09T12:57:27.370Z,98880.84
2022-09-09T13:00:05.546Z,98867.97
2022-09-09T13:02:32.970Z,98860.88
2022-09-09T13:05:07.953Z,98854.97
2022-09-09T13:07:35.338Z,98858.03
2022-09-09T13:10:02.522Z,98845.56
2022-09-09T13:12:29.711Z,98845.78
2022-09-09T13:14:57.334Z,98842.34
2022-09-09T13:17:25.442Z,98838.69
2022-09-09T13:19:53.852Z,98842.66
2022-09-09T13:22:32.008Z,98840.72
2022-09-09T13:25:04.090Z,98840.13
2022-09-09T13:27:35.844Z,98855.28
2022-09-09T13:30:03.176Z,98849.25
2022-09-09T13:32:30.378Z,98834.53
2022-09-09T13:34:58.627Z,98831.09
2022-09-09T13:37:35.873Z,98831.66
2022-09-09T13:40:04.130Z,98836.63
2022-09-09T13:42:32.523Z,98826.81
2022-09-09T13:44:59.875Z,98823.34
2022-09-09T13:47:32.093Z,98827.84
2022-09-09T13:49:59.251Z,98818.78
2022-09-09T13:52:26.959Z,98821.81
2022-09-09T13:54:55.082Z,98816.31
2022-09-09T13:57:23.459Z,98808.06
2022-09-09T14:00:06.638Z,98798.78
2022-09-09T14:02:34.831Z,98802.28
2022-09-09T14:05:02.101Z,98803.13
2022-09-09T14:07:29.984Z,98795.22
2022-09-09T14:09:57.451Z,98785.38
2022-09-09T14:12:24.936Z,98778.97
2022-09-09T14:14:53.029Z,98786.97
2022-09-09T14:17:20.398Z,98784.81
2022-09-09T14:19:47.554Z,98790.25
2022-09-09T14:22:15.029Z,98792.62
2022-09-09T14:24:42.466Z,98788.87
2022-09-09T14:27:09.754Z,98788.03
2022-09-09T14:29:37.036Z,98791.59
2022-09-09T14:32:06.591Z,98785.16
2022-09-09T14:34:39.129Z,98784.31
2022-09-09T14:37:06.524Z,98779.75
2022-09-09T14:39:33.665Z,98777.53
2022-09-09T14:42:00.816Z,98778.50
2022-09-09T14:44:28.198Z,98773.56
2022-09-09T14:46:55.333Z,98781.44
2022-09-09T14:49:22.427Z,98782.88
2022-09-09T14:51:49.843Z,98775.53
2022-09-09T14:54:17.294Z,98782.72
2022-09-09T14:56:44.468Z,98777.47
2022-09-09T14:59:11.888Z,98779.25
2022-09-09T15:01:39.102Z,98782.56
2022-09-09T15:04:06.693Z,98781.63
2022-09-09T15:06:35.130Z,98779.59
2022-09-09T15:09:02.215Z,98781.63
2022-09-09T15:11:31.490Z,98777.78
2022-09-09T15:13:59.561Z,98767.16
2022-09-09T15:16:28.084Z,98772.13
2022-09-09T15:18:56.068Z,98779.72
2022-09-09T15:21:24.456Z,98777.78
2022-09-09T15:23:52.261Z,98778.62
2022-09-09T15:26:19.594Z,98775.75
2022-09-09T15:28:48.311Z,98781.31
2022-09-09T15:31:20.225Z,98774.53
2022-09-09T15:33:49.135Z,98786.12
2022-09-09T15:36:26.269Z,98787.75
2022-09-09T15:38:53.915Z,98786.09
2022-09-09T15:41:21.514Z,98784.59
2022-09-09T15:43:52.805Z,98784.84
2022-09-09T15:46:28.400Z,98784.69
2022-09-09T15:48:56.650Z,98775.19
2022-09-09T15:51:41.659Z,98773.87
2022-09-09T15:54:10.208Z,98772.16
2022-09-09T15:56:37.575Z,98774.84
2022-09-09T15:59:04.746Z,98778.25
2022-09-09T16:01:32.136Z,98778.25
2022-09-09T16:04:00.977Z,98785.53
2022-09-09T16:06:29.407Z,98791.03
2022-09-09T16:08:57.222Z,98799.94
2022-09-09T16:11:25.679Z,98803.81
2022-09-09T16:13:53.370Z,98804.66
2022-09-09T16:16:22.987Z,98797.63
2022-09-09T16:18:54.394Z,98804.91
2022-09-09T16:21:25.404Z,98805.06
2022-09-09T16:23:54.331Z,98797.72
2022-09-09T16:26:21.432Z,98800.91
2022-09-09T16:28:48.964Z,98805.91
2022-09-09T16:31:18.306Z,98801.03
2022-09-09T16:33:45.756Z,98800.78
2022-09-09T16:36:16.834Z,98801.78
2022-09-09T16:38:44.274Z,98795.78
2022-09-09T16:41:11.883Z,98797.03
2022-09-09T16:43:39.173Z,98792.97
2022-09-09T16:46:17.418Z,98791.53
2022-09-09T16:48:45.305Z,98805.25
2022-09-09T16:51:15.146Z,98806.75
2022-09-09T16:53:45.197Z,98804.91
2022-09-09T16:56:15.155Z,98812.91
2022-09-09T16:58:43.906Z,98811.56
2022-09-09T17:01:15.415Z,98811.44
2022-09-09T17:03:42.930Z,98809.63
2022-09-09T17:06:11.046Z,98807.06
2022-09-09T17:08:39.934Z,98812.03
2022-09-09T17:11:15.077Z,98803.16
2022-09-09T17:13:42.871Z,98804.59
2022-09-09T17:16:10.573Z,98805.91
2022-09-09T17:18:37.816Z,98813.94
2022-09-09T17:21:08.849Z,98811.50
2022-09-09T17:23:38.831Z,98805.09
2022-09-09T17:26:06.805Z,98806.16
2022-09-09T17:28:34.394Z,98806.09
2022-09-09T17:31:03.276Z,98798.91
2022-09-09T17:33:31.877Z,98804.13
2022-09-09T17:35:59.959Z,98804.13
2022-09-09T17:38:29.345Z,98808.88
2022-09-09T17:41:07.063Z,98811.87
2022-09-09T17:43:34.804Z,98809.63
2022-09-09T17:46:08.536Z,98817.81
2022-09-09T17:48:37.674Z,98809.09
2022-09-09T17:51:12.348Z,98808.25
2022-09-09T17:53:43.923Z,98808.44
2022-09-09T17:56:11.583Z,98813.91
2022-09-09T17:58:38.933Z,98803.94
2022-09-09T18:01:07.248Z,98794.91
2022-09-09T18:03:35.549Z,98799.38
2022-09-09T18:06:03.797Z,98806.34
2022-09-09T18:08:34.759Z,98820.41
2022-09-09T18:11:04.380Z,98829.19
2022-09-09T18:13:31.804Z,98834.00
2022-09-09T18:15:59.168Z,98828.25
2022-09-09T18:18:26.916Z,98833.38
2022-09-09T18:20:57.972Z,98827.50
2022-09-09T18:23:25.164Z,98814.44
2022-09-09T18:25:52.665Z,98822.59
2022-09-09T18:28:24.546Z,98820.09
2022-09-09T18:30:52.818Z,98829.94
2022-09-09T18:33:21.225Z,98828.00
2022-09-09T18:35:48.902Z,98836.44
2022-09-09T18:38:17.823Z,98833.69
2022-09-09T18:40:45.027Z,98830.28
2022-09-09T18:43:13.083Z,98829.38
2022-09-09T18:45:40.897Z,98829.59
2022-09-09T18:48:08.542Z,98835.78
2022-09-09T18:50:36.046Z,98831.62
2022-09-09T18:53:03.682Z,98832.81
2022-09-09T18:55:31.552Z,98829.84
2022-09-09T18:57:59.531Z,98823.66
2022-09-09T19:00:27.073Z,98842.66
2022-09-09T19:02:54.330Z,98834.09
2022-09-09T19:05:21.757Z,98825.66
2022-09-09T19:07:49.501Z,98812.31
2022-09-09T19:10:16.958Z,98819.56
2022-09-09T19:12:44.747Z,98825.75
2022-09-09T19:15:12.378Z,98827.91
2022-09-09T19:17:39.832Z,98826.44
2022-09-09T19:20:09.247Z,98827.91
2022-09-09T19:22:36.806Z,98823.41
2022-09-09T19:25:04.373Z,98819.09
2022-09-09T19:27:31.769Z,98823.78
2022-09-09T19:29:59.416Z,98820.13
2022-09-09T19:35:14.145Z,98819.28
2022-09-09T19:37:42.263Z,98824.09
2022-09-09T19:40:11.362Z,98822.13
2022-09-09T19:42:40.881Z,98825.44
2022-09-09T19:45:10.561Z,98826.72
2022-09-09T19:47:37.770Z,98828.63
2022-09-09T19:50:05.829Z,98828.31
2022-09-09T19:52:33.061Z,98822.06
2022-09-09T19:55:01.275Z,98821.50
2022-09-09T19:57:30.372Z,98822.91
2022-09-09T19:59:57.512Z,98826.97
2022-09-09T20:02:25.003Z,98822.63
2022-09-09T20:04:52.442Z,98829.03
2022-09-09T20:07:19.611Z,98831.69
2022-09-09T20:09:46.825Z,98838.91
2022-09-09T20:12:14.245Z,98834.94
2022-09-09T20:14:41.379Z,98836.50
2022-09-09T20:17:09.983Z,98846.91
2022-09-09T20:19:39.683Z,98846.12
2022-09-09T20:22:06.995Z,98850.28
2022-09-09T20:24:34.169Z,98857.13
2022-09-09T20:27:02.052Z,98857.97
2022-09-09T20:29:29.194Z,98856.81
2022-09-09T20:31:56.318Z,98846.31
2022-09-09T20:34:25.799Z,98842.44
2022-09-09T20:36:54.272Z,98847.84
2022-09-09T20:39:22.333Z,98842.13
2022-09-09T20:41:49.931Z,98847.03
2022-09-09T20:44:18.045Z,98836.97
2022-09-09T20:46:49.535Z,98833.28
2022-09-09T20:49:17.920Z,98836.00
2022-09-09T20:51:46.654Z,98827.81
2022-09-09T20:54:14.622Z,98827.72
2022-09-09T20:56:42.578Z,98819.47
2022-09-09T20:59:11.765Z,98822.28
2022-09-09T21:01:39.496Z,98820.91
2022-09-09T21:04:07.239Z,98817.91
2022-09-09T21:06:34.488Z,98814.03
2022-09-09T21:09:01.603Z,98822.03
2022-09-09T21:11:28.961Z,98826.87
2022-09-09T21:13:56.492Z,98834.72
2022-09-09T21:16:23.598Z,98846.50
2022-09-09T21:18:51.055Z,98846.53
2022-09-09T21:21:21.144Z,98842.81
2022-09-09T21:23:48.862Z,98842.44
2022-09-09T21:26:17.864Z,98833.59
2022-09-09T21:28:45.039Z,98834.06
2022-09-09T21:31:15.803Z,98828.38
2022-09-09T21:33:43.220Z,98822.06
2022-09-09T21:36:12.016Z,98827.87
2022-09-09T21:38:42.164Z,98824.38
2022-09-09T21:41:13.405Z,98816.38
2022-09-09T21:43:41.963Z,98821.44
2022-09-09T21:46:10.227Z,98818.38
2022-09-09T21:48:37.548Z,98813.81
2022-09-09T21:51:08.237Z,98823.72
2022-09-09T21:53:36.079Z,98821.03
2022-09-09T21:56:04.863Z,98816.28
2022-09-09T21:58:31.967Z,98822.91
2022-09-09T22:00:59.412Z,98821.38
2022-09-09T22:03:26.833Z,98824.47
2022-09-09T22:05:54.223Z,98825.31
2022-09-09T22:08:21.390Z,98825.16
2022-09-09T22:10:48.806Z,98831.12
2022-09-09T22:13:16.410Z,98823.28
2022-09-09T22:15:44.470Z,98822.88
2022-09-09T22:18:13.181Z,98820.47
2022-09-09T22:20:41.841Z,98817.53
2022-09-09T22:23:09.466Z,98814.16
2022-09-09T22:25:36.924Z,98807.59
2022-09-09T22:28:05.146Z,98811.06
2022-09-09T22:30:32.538Z,98814.13
2022-09-09T22:33:01.118Z,98816.88
2022-09-09T22:35:29.082Z,98817.75
2022-09-09T22:37:57.083Z,98821.72
2022-09-09T22:40:24.545Z,98818.16
2022-09-09T22:42:52.883Z,98814.47
2022-09-09T22:45:21.694Z,98802.06
2022-09-09T22:47:51.465Z,98803.66
2022-09-09T22:50:19.672Z,98804.25
2022-09-09T22:52:47.426Z,98811.13
2022-09-09T22:55:14.810Z,98809.66
2022-09-09T22:57:42.160Z,98803.06
2022-09-09T23:00:09.754Z,98806.81
2022-09-09T23:02:41.051Z,98807.88
2022-09-09T23:05:08.862Z,98802.47
2022-09-09T23:07:36.707Z,98801.03
2022-09-09T23:10:05.207Z,98796.19
2022-09-09T23:12:32.812Z,98800.66
2022-09-09T23:15:00.360Z,98803.47
2022-09-09T23:17:27.495Z,98805.03
2022-09-09T23:19:56.397Z,98809.50
2022-09-09T23:22:24.678Z,98806.53
2022-09-09T23:24:54.030Z,98799.78
2022-09-09T23:27:24.111Z,98793.88
2022-09-09T23:29:51.845Z,98798.66
2022-09-09T23:32:19.001Z,98794.56
2022-09-09T23:34:47.590Z,98802.09
2022-09-09T23:37:15.135Z,98799.03
2022-09-09T23:39:42.913Z,98798.84
2022-09-09T23:42:11.363Z,98804.31
2022-09-09T23:44:39.557Z,98803.31
2022-09-09T23:47:07.258Z,98796.22
2022-09-09T23:49:34.883Z,98800.31
2022-09-09T23:52:05.335Z,98808.12
2022-09-09T23:54:35.250Z,98806.44
2022-09-09T23:57:03.137Z,98814.66
2022-09-09T23:59:30.845Z,98811.81
